Deerfield, Wisconsin
Current Conditions -  °F | °C
As of 2:53 PM on Tuesday 21 Oct 2014 (Local Time) from KMSN Reporting Station
Overcast Overcast  
Wind Chill: 44°   Ceiling: 2600
Heat Index: 48°   Visibility: 10mi
Dew Point: 37°   Wind: 8mph
Humidity: 66%   Direction: 50°NE
Pressure: 30.23"   Gusts: NA
Location:  43.05°N, 89.08°W
Report Text: KMSN 211953Z 05007KT 10SM OVC026 09/03 A3023 RMK AO2 SLP240 T00890028
Loading
Personal Weather Stations






























Interactive Weather Map
Tropical Storm Tracking
New forecast layout! Learn more

10-Day Weather Forecast

Advertisements
Track Severe Weather on mobile